Vayland, South Dakota
Current Conditions -  °F | °C
As of 4:55 AM on Saturday 25 Oct 2014 (Local Time) from KHON Reporting Station
Clear Clear  
Wind Chill: 41°   Ceiling: Unl
Heat Index: 44°   Visibility: 10mi
Dew Point: 37°   Wind: 6mph
Humidity: 76%   Direction: 330°NNW
Pressure: 30.09"   Gusts: NA
Location:  44.3714°N, 98.681°W
Report Text: KHON 250955Z AUTO 33005KT 10SM CLR 07/03 A3009 RMK AO2 SLP187 T00670028
Loading
Personal Weather Stations






























Interactive Weather Map
Tropical Storm Tracking
New forecast layout! Learn more

10-Day Weather Forecast

Advertisements
Track Severe Weather on mobile